createdAt,value
2023-02-05T00:00:01.549Z,28.40
2023-02-05T00:02:31.788Z,26.50
2023-02-05T00:05:01.434Z,24.40
2023-02-05T00:07:30.352Z,24.80
2023-02-05T00:09:59.596Z,25.20
2023-02-05T00:12:29.922Z,26.90
2023-02-05T00:14:59.087Z,23.90
2023-02-05T00:17:31.943Z,27.20
2023-02-05T00:20:02.184Z,25.40
2023-02-05T00:22:32.320Z,26.40
2023-02-05T00:25:01.285Z,26.60
2023-02-05T00:27:31.821Z,28.40
2023-02-05T00:30:00.524Z,30.60
2023-02-05T00:32:29.835Z,30.70
2023-02-05T00:34:58.428Z,29.40
2023-02-05T00:37:27.080Z,29.20
2023-02-05T00:39:58.607Z,31.10
2023-02-05T00:42:28.766Z,30.60
2023-02-05T00:44:58.515Z,31.20
2023-02-05T00:47:28.032Z,31.90
2023-02-05T00:49:56.868Z,37.80
2023-02-05T00:52:25.762Z,41.20
2023-02-05T00:54:57.450Z,35.90
2023-02-05T00:57:27.029Z,32.80
2023-02-05T00:59:58.771Z,32.20
2023-02-05T01:02:29.459Z,31.70
2023-02-05T01:04:58.599Z,39.70
2023-02-05T01:07:28.873Z,37.90
2023-02-05T01:09:59.425Z,39.10
2023-02-05T01:12:29.432Z,41.00
2023-02-05T01:15:06.224Z,43.80
2023-02-05T01:17:36.624Z,35.20
2023-02-05T01:20:09.688Z,31.90
2023-02-05T01:22:40.779Z,29.80
2023-02-05T01:25:09.721Z,33.00
2023-02-05T01:27:39.720Z,34.40
2023-02-05T01:30:12.092Z,34.90
2023-02-05T01:32:43.832Z,38.90
2023-02-05T01:35:12.472Z,41.40
2023-02-05T01:37:43.111Z,39.30
2023-02-05T01:40:16.248Z,39.90
2023-02-05T01:42:47.269Z,34.90
2023-02-05T01:45:23.886Z,32.80
2023-02-05T01:48:01.351Z,32.10
2023-02-05T01:50:39.355Z,34.50
2023-02-05T01:53:11.649Z,34.70
2023-02-05T01:55:48.583Z,32.40
2023-02-05T01:58:18.332Z,31.10
2023-02-05T02:00:47.946Z,30.50
2023-02-05T02:03:17.591Z,30.80
2023-02-05T02:05:47.093Z,30.70
2023-02-05T02:08:16.817Z,33.00
2023-02-05T02:10:47.713Z,37.40
2023-02-05T02:13:18.288Z,48.10
2023-02-05T02:15:49.853Z,50.00
2023-02-05T02:18:26.539Z,46.40
2023-02-05T02:21:20.866Z,47.50
2023-02-05T02:24:11.443Z,50.00
2023-02-05T02:27:12.492Z,47.80
2023-02-05T02:30:09.619Z,41.80
2023-02-05T02:32:39.138Z,37.60
2023-02-05T02:35:14.258Z,37.50
2023-02-05T02:37:48.708Z,35.00
2023-02-05T02:40:27.657Z,39.70
2023-02-05T02:43:18.067Z,36.70
2023-02-05T02:45:50.815Z,33.30
2023-02-05T02:48:23.292Z,39.90
2023-02-05T02:53:30.702Z,40.20
2023-02-05T02:56:00.758Z,45.00
2023-02-05T02:58:33.983Z,45.70
2023-02-05T03:01:03.112Z,47.00
2023-02-05T03:03:32.860Z,55.80
2023-02-05T03:06:06.215Z,50.30
2023-02-05T03:08:38.964Z,51.00
2023-02-05T03:11:12.433Z,56.10
2023-02-05T03:13:43.141Z,52.30
2023-02-05T03:16:14.376Z,52.90
2023-02-05T03:18:43.558Z,50.00
2023-02-05T03:21:17.310Z,43.90
2023-02-05T03:23:48.409Z,45.80
2023-02-05T03:26:36.741Z,49.50
2023-02-05T03:29:15.071Z,45.50
2023-02-05T03:32:19.276Z,46.10
2023-02-05T03:34:53.665Z,47.50
2023-02-05T03:37:45.166Z,39.90
2023-02-05T03:40:32.773Z,39.10
2023-02-05T03:43:15.540Z,40.10
2023-02-05T03:46:05.693Z,49.50
2023-02-05T03:48:57.286Z,47.20
2023-02-05T03:51:46.814Z,56.20
2023-02-05T03:54:22.345Z,58.00
2023-02-05T03:56:55.493Z,52.80
2023-02-05T03:59:26.495Z,44.30
2023-02-05T04:01:55.996Z,51.90
2023-02-05T04:04:25.845Z,55.20
2023-02-05T04:06:57.643Z,53.10
2023-02-05T04:09:26.744Z,42.70
2023-02-05T04:11:57.095Z,45.60
2023-02-05T04:14:26.619Z,41.70
2023-02-05T04:16:59.725Z,36.40
2023-02-05T04:19:30.190Z,33.60
2023-02-05T04:22:01.638Z,31.50
2023-02-05T04:24:35.030Z,30.40
2023-02-05T04:27:04.702Z,28.70
2023-02-05T04:29:34.314Z,27.70
2023-02-05T04:32:04.553Z,27.50
2023-02-05T04:34:33.925Z,26.80
2023-02-05T04:37:05.130Z,24.10
2023-02-05T04:39:35.225Z,25.60
2023-02-05T04:42:04.185Z,26.00
2023-02-05T04:44:38.188Z,26.70
2023-02-05T04:49:41.962Z,25.80
2023-02-05T04:52:11.785Z,26.90
2023-02-05T04:54:40.629Z,26.80
2023-02-05T04:57:10.491Z,28.30
2023-02-05T04:59:39.742Z,27.50
2023-02-05T05:02:09.453Z,27.90
2023-02-05T05:04:38.709Z,27.40
2023-02-05T05:07:10.557Z,34.20
2023-02-05T05:09:40.085Z,48.00
2023-02-05T05:12:10.541Z,48.90
2023-02-05T05:14:41.548Z,44.70
2023-02-05T05:17:15.742Z,45.90
2023-02-05T05:19:46.312Z,46.10
2023-02-05T05:22:17.711Z,44.60
2023-02-05T05:24:47.641Z,36.30
2023-02-05T05:27:19.061Z,36.50
2023-02-05T05:29:48.129Z,39.10
2023-02-05T05:32:17.649Z,39.40
2023-02-05T05:34:48.567Z,41.90
2023-02-05T05:37:19.348Z,47.00
2023-02-05T05:40:07.930Z,42.70
2023-02-05T05:42:56.907Z,43.90
2023-02-05T05:45:27.395Z,42.00
2023-02-05T05:47:58.272Z,39.70
2023-02-05T05:50:28.555Z,42.10
2023-02-05T05:53:03.002Z,32.90
2023-02-05T05:55:33.292Z,38.10
2023-02-05T05:58:04.199Z,34.80
2023-02-05T06:00:35.076Z,29.30
2023-02-05T06:03:13.991Z,24.30
2023-02-05T06:05:45.074Z,21.70
2023-02-05T06:08:16.968Z,21.40
2023-02-05T06:10:47.108Z,21.50
2023-02-05T06:13:19.041Z,21.60
2023-02-05T06:15:52.677Z,18.90
2023-02-05T06:18:25.182Z,17.80
2023-02-05T06:20:56.658Z,16.90
2023-02-05T06:23:27.836Z,16.30
2023-02-05T06:25:57.611Z,16.30
2023-02-05T06:28:27.153Z,15.40
2023-02-05T06:30:56.184Z,14.00
2023-02-05T06:33:25.235Z,13.40
2023-02-05T06:35:54.499Z,14.90
2023-02-05T06:38:23.813Z,14.10
2023-02-05T06:40:53.902Z,14.30
2023-02-05T06:43:22.756Z,12.40
2023-02-05T06:45:52.316Z,13.10
2023-02-05T06:48:23.245Z,11.80
2023-02-05T06:50:52.521Z,13.10
2023-02-05T06:53:21.695Z,12.20
2023-02-05T06:55:50.911Z,12.60
2023-02-05T06:58:19.569Z,13.00
2023-02-05T07:00:48.472Z,13.70
2023-02-05T07:03:17.207Z,15.60
2023-02-05T07:05:52.106Z,14.20
2023-02-05T07:08:20.690Z,14.70
2023-02-05T07:10:53.019Z,13.60
2023-02-05T07:13:24.828Z,12.00
2023-02-05T07:15:54.901Z,10.80
2023-02-05T07:18:24.794Z,11.30
2023-02-05T07:20:57.842Z,10.40
2023-02-05T07:23:27.136Z,10.40
2023-02-05T07:25:56.084Z,9.70
2023-02-05T07:28:25.171Z,9.60
2023-02-05T07:30:56.019Z,8.40
2023-02-05T07:33:26.221Z,8.40
2023-02-05T07:35:55.770Z,8.80
2023-02-05T07:38:27.668Z,7.30
2023-02-05T07:40:56.591Z,6.80
2023-02-05T07:43:26.245Z,6.90
2023-02-05T07:45:59.264Z,8.10
2023-02-05T07:48:28.071Z,6.90
2023-02-05T07:50:59.983Z,7.40
2023-02-05T07:53:30.582Z,8.00
2023-02-05T07:56:04.271Z,7.20
2023-02-05T07:58:34.444Z,5.60
2023-02-05T08:01:04.286Z,6.80
2023-02-05T08:03:33.574Z,6.40
2023-02-05T08:06:07.415Z,6.60
2023-02-05T08:08:36.442Z,6.80
2023-02-05T08:11:06.669Z,7.00
2023-02-05T08:13:36.623Z,7.00
2023-02-05T08:16:10.486Z,6.30
2023-02-05T08:18:40.208Z,8.50
2023-02-05T08:21:08.949Z,7.60
2023-02-05T08:23:37.742Z,6.00
2023-02-05T08:26:06.742Z,6.60
2023-02-05T08:28:37.052Z,6.40
2023-02-05T08:31:17.819Z,5.00
2023-02-05T08:33:49.861Z,5.10
2023-02-05T08:36:20.567Z,4.80
2023-02-05T08:38:50.210Z,6.10
2023-02-05T08:41:20.081Z,4.40
2023-02-05T08:43:50.917Z,4.70
2023-02-05T08:46:22.170Z,4.80
2023-02-05T08:48:53.431Z,5.30
2023-02-05T08:51:23.348Z,7.30
2023-02-05T08:53:52.175Z,7.20
2023-02-05T08:56:21.813Z,5.20
2023-02-05T08:58:51.276Z,5.70
2023-02-05T09:01:21.111Z,6.10
2023-02-05T09:03:50.727Z,5.30
2023-02-05T09:06:19.683Z,5.80
2023-02-05T09:08:49.311Z,4.10
2023-02-05T09:11:21.914Z,4.60
2023-02-05T09:13:51.540Z,5.90
2023-02-05T09:16:20.449Z,6.40
2023-02-05T09:18:50.572Z,6.70
2023-02-05T09:21:19.888Z,5.40
2023-02-05T09:23:48.429Z,5.40
2023-02-05T09:26:17.580Z,5.90
2023-02-05T09:28:46.918Z,6.40
2023-02-05T09:31:18.247Z,6.40
2023-02-05T09:33:48.077Z,5.90
2023-02-05T09:36:22.662Z,10.20
2023-02-05T09:39:02.012Z,8.50
2023-02-05T09:41:51.071Z,8.80
2023-02-05T09:44:39.234Z,5.90
2023-02-05T09:47:24.416Z,6.90
2023-02-05T09:49:59.083Z,6.90
2023-02-05T09:52:32.083Z,5.30
2023-02-05T09:55:05.162Z,5.60
2023-02-05T09:57:36.497Z,5.20
2023-02-05T10:00:06.612Z,6.60
2023-02-05T10:02:50.736Z,4.70
2023-02-05T10:05:19.719Z,6.20
2023-02-05T10:08:06.215Z,6.20
2023-02-05T10:10:46.129Z,8.50
2023-02-05T10:13:26.338Z,7.80
2023-02-05T10:16:16.343Z,7.70
2023-02-05T10:19:10.518Z,9.20
2023-02-05T10:22:12.198Z,8.80
2023-02-05T10:24:52.728Z,7.80
2023-02-05T10:27:29.114Z,7.60
2023-02-05T10:30:14.142Z,8.50
2023-02-05T10:32:55.998Z,7.00
2023-02-05T10:35:46.827Z,9.70
2023-02-05T10:38:25.099Z,11.30
2023-02-05T10:41:12.638Z,10.00
2023-02-05T10:43:54.418Z,8.50
2023-02-05T10:46:23.111Z,6.80
2023-02-05T10:48:57.512Z,10.70
2023-02-05T10:51:38.627Z,11.20
2023-02-05T10:54:15.578Z,10.30
2023-02-05T10:56:45.015Z,9.40
2023-02-05T10:59:26.988Z,9.20
2023-02-05T11:02:03.369Z,10.80
2023-02-05T11:05:00.725Z,8.00
2023-02-05T11:07:50.784Z,14.20
2023-02-05T11:10:21.949Z,16.70
2023-02-05T11:13:01.821Z,15.00
2023-02-05T11:15:32.684Z,17.80
2023-02-05T11:18:06.932Z,14.00
2023-02-05T11:20:38.380Z,12.20
2023-02-05T11:23:22.316Z,12.20
2023-02-05T11:28:24.781Z,8.90
2023-02-05T11:30:54.045Z,8.00
2023-02-05T11:33:23.334Z,17.20
2023-02-05T11:36:03.545Z,13.40
2023-02-05T11:38:44.734Z,14.20
2023-02-05T11:41:15.722Z,12.80
2023-02-05T11:43:51.421Z,11.00
2023-02-05T11:46:22.923Z,11.60
2023-02-05T11:49:02.184Z,10.00
2023-02-05T11:51:44.997Z,10.10
2023-02-05T11:54:20.635Z,9.60
2023-02-05T11:57:24.082Z,7.20
2023-02-05T11:59:57.465Z,8.50
2023-02-05T12:02:31.620Z,8.50
2023-02-05T12:05:06.464Z,10.40
2023-02-05T12:07:45.476Z,10.00
2023-02-05T12:10:44.549Z,11.10
2023-02-05T12:13:36.010Z,10.60
2023-02-05T12:16:50.534Z,11.90
2023-02-05T12:19:27.398Z,13.90
2023-02-05T12:22:13.963Z,13.90
2023-02-05T12:24:49.078Z,16.50
2023-02-05T12:27:37.406Z,13.40
2023-02-05T12:30:27.491Z,13.30
2023-02-05T12:33:01.938Z,13.10
2023-02-05T12:35:50.897Z,12.00
2023-02-05T12:38:32.554Z,13.80
2023-02-05T12:41:23.317Z,13.80
2023-02-05T12:43:53.715Z,11.90
2023-02-05T12:46:45.423Z,11.50
2023-02-05T12:49:36.140Z,10.80
2023-02-05T12:52:39.121Z,12.40
2023-02-05T12:55:29.566Z,14.20
2023-02-05T12:58:02.430Z,14.70
2023-02-05T13:00:44.658Z,14.20
2023-02-05T13:03:19.736Z,13.10
2023-02-05T13:05:53.741Z,12.20
2023-02-05T13:08:48.762Z,11.90
2023-02-05T13:11:50.810Z,15.30
2023-02-05T13:14:26.309Z,12.10
2023-02-05T13:17:12.141Z,10.90
2023-02-05T13:19:44.674Z,11.50
2023-02-05T13:22:37.165Z,12.70
2023-02-05T13:25:57.312Z,12.40
2023-02-05T13:28:43.728Z,13.80
2023-02-05T13:31:27.896Z,13.20
2023-02-05T13:34:01.744Z,12.90
2023-02-05T13:36:42.886Z,13.20
2023-02-05T13:39:34.390Z,14.70
2023-02-05T13:42:18.894Z,23.00
2023-02-05T13:45:05.183Z,23.10
2023-02-05T13:47:51.660Z,17.90
2023-02-05T13:50:48.154Z,18.50
2023-02-05T13:53:50.993Z,20.10
2023-02-05T13:56:29.463Z,25.90
2023-02-05T13:59:01.016Z,39.00
2023-02-05T14:01:35.113Z,49.70
2023-02-05T14:04:17.713Z,47.70
2023-02-05T14:06:51.806Z,51.00
2023-02-05T14:09:24.137Z,40.20
2023-02-05T14:11:58.538Z,43.10
2023-02-05T14:14:29.182Z,33.10
2023-02-05T14:17:01.004Z,31.60
2023-02-05T14:19:33.039Z,26.90
2023-02-05T14:22:04.193Z,31.10
2023-02-05T14:24:49.661Z,29.60
2023-02-05T14:27:37.838Z,31.10
2023-02-05T14:30:33.274Z,44.80
2023-02-05T14:33:30.597Z,42.20
2023-02-05T14:36:22.970Z,36.20
2023-02-05T14:39:26.648Z,31.00
2023-02-05T14:41:59.512Z,27.80
2023-02-05T14:44:36.098Z,28.20
2023-02-05T14:47:26.568Z,28.20
2023-02-05T14:50:05.966Z,32.20
2023-02-05T14:52:42.993Z,30.70
2023-02-05T14:55:14.447Z,30.00
2023-02-05T14:57:58.327Z,25.30
2023-02-05T15:00:30.095Z,19.10
2023-02-05T15:03:13.697Z,15.10
2023-02-05T15:05:47.495Z,13.70
2023-02-05T15:08:36.282Z,13.40
2023-02-05T15:11:13.599Z,13.20
2023-02-05T15:13:43.579Z,15.40
2023-02-05T15:16:13.437Z,17.70
2023-02-05T15:18:59.367Z,22.00
2023-02-05T15:21:41.061Z,19.40
2023-02-05T15:24:21.714Z,18.50
2023-02-05T15:26:52.811Z,14.00
2023-02-05T15:29:27.154Z,15.30
2023-02-05T15:31:59.572Z,16.60
2023-02-05T15:34:33.407Z,19.20
2023-02-05T15:37:18.958Z,20.20
2023-02-05T15:39:55.793Z,19.90
2023-02-05T15:42:31.857Z,25.10
2023-02-05T15:45:18.213Z,24.00
2023-02-05T15:48:19.188Z,29.90
2023-02-05T15:50:52.482Z,27.80
2023-02-05T15:53:50.834Z,28.60
2023-02-05T15:56:29.687Z,34.30
2023-02-05T15:59:12.704Z,30.50
2023-02-05T16:02:00.525Z,26.50
2023-02-05T16:04:32.265Z,27.00
2023-02-05T16:07:05.140Z,28.40
2023-02-05T16:09:36.118Z,37.50
2023-02-05T16:12:13.193Z,33.10
2023-02-05T16:14:42.297Z,29.40
2023-02-05T16:17:19.849Z,22.00
2023-02-05T16:19:53.523Z,16.50
2023-02-05T16:22:44.611Z,14.30
2023-02-05T16:25:24.281Z,15.90
2023-02-05T16:27:55.234Z,16.70
2023-02-05T16:30:34.535Z,18.20
2023-02-05T16:33:04.674Z,19.20
2023-02-05T16:35:36.467Z,22.10
2023-02-05T16:38:09.556Z,22.60
2023-02-05T16:40:46.993Z,23.20
2023-02-05T16:43:36.353Z,25.00
2023-02-05T16:46:08.611Z,28.20
2023-02-05T16:48:39.257Z,31.30
2023-02-05T16:51:34.139Z,28.20
2023-02-05T16:54:22.422Z,27.80
2023-02-05T16:56:56.959Z,26.50
2023-02-05T16:59:29.890Z,26.70
2023-02-05T17:02:03.838Z,29.40
2023-02-05T17:04:37.280Z,30.20
2023-02-05T17:07:16.915Z,29.10
2023-02-05T17:09:46.887Z,31.70
2023-02-05T17:12:20.511Z,31.50
2023-02-05T17:15:03.695Z,30.90
2023-02-05T17:17:33.753Z,32.90
2023-02-05T17:20:04.759Z,32.90
2023-02-05T17:22:35.020Z,29.50
2023-02-05T17:25:06.284Z,26.70
2023-02-05T17:27:39.735Z,26.00
2023-02-05T17:30:15.262Z,26.40
2023-02-05T17:32:47.022Z,28.60
2023-02-05T17:35:17.441Z,39.80
2023-02-05T17:37:46.069Z,41.90
2023-02-05T17:40:18.004Z,41.10
2023-02-05T17:42:47.455Z,32.40
2023-02-05T17:45:24.510Z,36.30
2023-02-05T17:47:54.736Z,28.50
2023-02-05T17:50:23.790Z,29.80
2023-02-05T17:52:52.736Z,28.00
2023-02-05T17:55:23.494Z,32.50
2023-02-05T17:57:52.479Z,35.00
2023-02-05T18:00:23.833Z,47.90
2023-02-05T18:02:53.582Z,47.50
2023-02-05T18:05:24.297Z,53.60
2023-02-05T18:08:00.396Z,47.00
2023-02-05T18:10:34.764Z,24.90
2023-02-05T18:13:05.045Z,21.70
2023-02-05T18:15:33.917Z,23.30
2023-02-05T18:18:04.024Z,17.90
2023-02-05T18:20:35.370Z,18.90
2023-02-05T18:23:04.986Z,21.80
2023-02-05T18:25:34.321Z,22.60
2023-02-05T18:28:04.668Z,22.50
2023-02-05T18:30:34.821Z,21.80
2023-02-05T18:33:04.911Z,19.30
2023-02-05T18:35:33.911Z,16.40
2023-02-05T18:38:03.759Z,19.00
2023-02-05T18:40:38.889Z,22.30
2023-02-05T18:43:08.696Z,20.60
2023-02-05T18:45:41.709Z,17.10
2023-02-05T18:48:13.060Z,18.00
2023-02-05T18:50:42.363Z,18.10
2023-02-05T18:53:14.610Z,17.70
2023-02-05T18:55:44.075Z,17.10
2023-02-05T18:58:13.628Z,17.00
2023-02-05T19:00:44.314Z,17.30
2023-02-05T19:03:15.604Z,13.90
2023-02-05T19:05:45.214Z,16.30
2023-02-05T19:08:14.996Z,16.20
2023-02-05T19:10:44.186Z,16.40
2023-02-05T19:13:15.111Z,16.40
2023-02-05T19:15:45.068Z,18.10
2023-02-05T19:18:15.461Z,18.70
2023-02-05T19:20:46.118Z,25.10
2023-02-05T19:23:16.191Z,30.50
2023-02-05T19:25:46.920Z,39.40
2023-02-05T19:28:20.151Z,43.50
2023-02-05T19:30:49.757Z,52.70
2023-02-05T19:33:19.790Z,51.40
2023-02-05T19:35:49.516Z,45.90
2023-02-05T19:38:21.630Z,39.40
2023-02-05T19:40:51.248Z,43.80
2023-02-05T19:43:21.071Z,40.60
2023-02-05T19:45:51.076Z,36.00
2023-02-05T19:48:21.107Z,29.10
2023-02-05T19:50:49.823Z,27.50
2023-02-05T19:53:19.359Z,27.40
2023-02-05T19:55:51.517Z,28.00
2023-02-05T19:58:21.247Z,31.90
2023-02-05T20:00:51.007Z,26.20
2023-02-05T20:03:20.211Z,24.20
2023-02-05T20:05:49.132Z,24.90
2023-02-05T20:08:18.285Z,21.30
2023-02-05T20:10:46.994Z,23.00
2023-02-05T20:13:16.848Z,24.60
2023-02-05T20:15:45.957Z,24.90
2023-02-05T20:18:15.817Z,28.10
2023-02-05T20:20:46.655Z,29.00
2023-02-05T20:23:17.344Z,28.90
2023-02-05T20:25:52.861Z,28.40
2023-02-05T20:28:22.584Z,23.10
2023-02-05T20:31:10.583Z,24.80
2023-02-05T20:33:39.631Z,23.20
2023-02-05T20:36:13.695Z,25.00
2023-02-05T20:38:43.287Z,27.60
2023-02-05T20:41:15.441Z,23.40
2023-02-05T20:43:44.909Z,23.60
2023-02-05T20:46:14.544Z,24.40
2023-02-05T20:48:44.600Z,27.10
2023-02-05T20:51:15.933Z,30.20
2023-02-05T20:53:45.232Z,30.50
2023-02-05T20:56:19.084Z,33.20
2023-02-05T20:58:49.733Z,22.30
2023-02-05T21:01:22.666Z,21.30
2023-02-05T21:03:55.847Z,23.50
2023-02-05T21:06:26.699Z,25.50
2023-02-05T21:08:56.435Z,24.60
2023-02-05T21:11:26.524Z,25.80
2023-02-05T21:13:56.577Z,25.70
2023-02-05T21:16:26.492Z,25.10
2023-02-05T21:18:56.097Z,26.10
2023-02-05T21:21:29.386Z,24.70
2023-02-05T21:24:01.561Z,23.40
2023-02-05T21:26:37.364Z,23.20
2023-02-05T21:29:10.641Z,23.40
2023-02-05T21:31:42.184Z,20.00
2023-02-05T21:34:16.191Z,22.50
2023-02-05T21:36:46.058Z,22.90
2023-02-05T21:39:16.365Z,22.80
2023-02-05T21:41:47.768Z,24.00
2023-02-05T21:44:19.149Z,23.00
2023-02-05T21:46:49.431Z,25.00
2023-02-05T21:49:19.032Z,26.30
2023-02-05T21:51:48.947Z,23.10
2023-02-05T21:54:17.623Z,22.50
2023-02-05T21:56:46.816Z,21.80
2023-02-05T21:59:16.682Z,22.60
2023-02-05T22:01:46.843Z,21.60
2023-02-05T22:04:16.995Z,23.20
2023-02-05T22:06:46.023Z,22.70
2023-02-05T22:09:17.838Z,24.50
2023-02-05T22:11:49.391Z,24.10
2023-02-05T22:14:18.469Z,23.30
2023-02-05T22:16:46.895Z,25.60
2023-02-05T22:19:20.437Z,26.40
2023-02-05T22:21:51.097Z,26.20
2023-02-05T22:24:25.394Z,27.00
2023-02-05T22:26:55.078Z,27.10
2023-02-05T22:29:26.208Z,25.30
2023-02-05T22:31:56.632Z,26.80
2023-02-05T22:34:26.100Z,26.60
2023-02-05T22:36:55.510Z,25.50
2023-02-05T22:39:24.440Z,22.70
2023-02-05T22:41:53.316Z,29.80
2023-02-05T22:44:23.052Z,24.90
2023-02-05T22:46:51.560Z,24.20
2023-02-05T22:49:21.273Z,22.80
2023-02-05T22:51:51.792Z,21.80
2023-02-05T22:54:21.441Z,24.30
2023-02-05T22:56:51.236Z,21.70
2023-02-05T22:59:21.053Z,21.90
2023-02-05T23:01:49.675Z,23.80
2023-02-05T23:04:18.167Z,23.60
2023-02-05T23:06:47.886Z,22.30
2023-02-05T23:09:18.074Z,23.50
2023-02-05T23:11:49.061Z,20.50
2023-02-05T23:14:19.720Z,22.40
2023-02-05T23:16:50.579Z,20.60
2023-02-05T23:19:20.518Z,26.60
2023-02-05T23:21:49.993Z,34.60
2023-02-05T23:24:19.295Z,36.50
2023-02-05T23:26:51.004Z,30.30
2023-02-05T23:29:19.964Z,30.20
2023-02-05T23:31:51.519Z,27.60
2023-02-05T23:34:20.740Z,25.10
2023-02-05T23:36:50.151Z,26.60
2023-02-05T23:39:19.041Z,26.50
2023-02-05T23:41:48.618Z,24.70
2023-02-05T23:44:21.171Z,22.70
2023-02-05T23:46:50.826Z,24.70
2023-02-05T23:49:24.260Z,24.10
2023-02-05T23:54:24.267Z,22.50
2023-02-05T23:56:53.099Z,21.70
2023-02-05T23:59:21.965Z,21.40
